Time;durP1;ratioP1;P1;durP2;ratioP2;P2;SDS_P1;SDS_P2;PMS_P1;PMS_P2;Temp;Humidity;BMP_temperature;BMP_pressure;BME280_temperature;BME280_humidity;BME280_pressure;Samples;Min_cycle;Max_cycle;Signal;HPM_P1;HPM_P2
2024/01/27 00:01:36;;;;;;;17.20;3.27;;;3.40;99.90;;;;;;5055092;28;20200;-61
2024/01/27 00:04:02;;;;;;;5.37;2.27;;;3.30;99.90;;;;;;5055154;28;20206;-60
2024/01/27 00:06:27;;;;;;;7.22;2.35;;;3.20;99.90;;;;;;5055025;28;20167;-60
2024/01/27 00:08:53;;;;;;;3.70;1.80;;;3.30;99.90;;;;;;5054954;28;20197;-60
2024/01/27 00:11:19;;;;;;;12.73;2.33;;;3.30;99.90;;;;;;5054828;28;20173;-59
2024/01/27 00:13:46;;;;;;;2.38;1.45;;;3.30;99.90;;;;;;5054743;28;20451;-60
2024/01/27 00:16:12;;;;;;;1.55;1.20;;;3.20;99.90;;;;;;5054863;28;20206;-60
2024/01/27 00:18:38;;;;;;;14.87;4.90;;;3.30;99.90;;;;;;5054759;28;20243;-60
2024/01/27 00:21:05;;;;;;;12.05;2.75;;;3.20;99.90;;;;;;5055078;28;20162;-61
2024/01/27 00:23:32;;;;;;;11.30;3.65;;;3.20;99.90;;;;;;5054525;28;20175;-60
2024/01/27 00:25:58;;;;;;;47.30;7.35;;;3.20;99.90;;;;;;5054669;28;20228;-60
2024/01/27 00:28:23;;;;;;;28.10;5.23;;;3.20;99.90;;;;;;5054599;28;20644;-60
2024/01/27 00:30:49;;;;;;;60.83;8.63;;;3.20;99.90;;;;;;5054346;28;20470;-60
2024/01/27 00:33:14;;;;;;;52.47;8.03;;;3.10;99.90;;;;;;5054350;28;20175;-60
2024/01/27 00:35:40;;;;;;;15.50;5.00;;;3.00;99.90;;;;;;5054347;28;20247;-60
2024/01/27 00:38:06;;;;;;;40.30;6.83;;;3.00;99.90;;;;;;5054449;28;20252;-60
2024/01/27 00:40:31;;;;;;;11.10;2.83;;;2.90;99.90;;;;;;5054351;28;20596;-60
2024/01/27 00:42:57;;;;;;;8.97;3.00;;;2.80;99.90;;;;;;5054215;28;20174;-60
2024/01/27 00:45:22;;;;;;;6.73;3.37;;;2.90;99.90;;;;;;5054501;28;20247;-60
2024/01/27 00:47:50;;;;;;;25.07;5.40;;;2.90;99.90;;;;;;5054267;28;20245;-61
2024/01/27 00:50:16;;;;;;;30.13;5.30;;;2.90;99.90;;;;;;5054094;28;20158;-60
2024/01/27 00:52:42;;;;;;;36.70;5.13;;;2.90;99.90;;;;;;5053947;28;20264;-60
2024/01/27 00:55:08;;;;;;;32.83;5.73;;;2.90;99.90;;;;;;5054072;28;20224;-60
2024/01/27 00:57:36;;;;;;;9.98;3.40;;;2.90;99.90;;;;;;5054008;28;20261;-60
2024/01/27 01:00:02;;;;;;;28.90;3.75;;;2.90;99.90;;;;;;5054000;28;20567;-60
2024/01/27 01:02:28;;;;;;;29.77;6.65;;;2.80;99.90;;;;;;5053635;28;20207;-60
2024/01/27 01:04:54;;;;;;;14.20;3.80;;;2.70;99.90;;;;;;5053638;28;20209;-60
2024/01/27 01:07:20;;;;;;;28.90;3.40;;;2.60;99.90;;;;;;5053904;28;20181;-60
2024/01/27 01:09:46;;;;;;;4.13;1.67;;;2.60;99.90;;;;;;5053340;28;20198;-60
2024/01/27 01:12:11;;;;;;;2.27;1.80;;;2.60;99.90;;;;;;5053591;28;20175;-60
2024/01/27 01:14:37;;;;;;;3.63;1.40;;;2.70;99.90;;;;;;5053841;28;20532;-60
2024/01/27 01:17:03;;;;;;;2.93;1.40;;;2.80;99.90;;;;;;5053641;28;20644;-60
2024/01/27 01:19:28;;;;;;;1.13;0.90;;;2.90;99.90;;;;;;5053566;28;20177;-60
2024/01/27 01:21:54;;;;;;;1.27;1.27;;;2.90;99.90;;;;;;5053413;28;20469;-61
2024/01/27 01:24:20;;;;;;;2.00;1.90;;;3.00;99.90;;;;;;5053659;28;20210;-60
2024/01/27 01:26:45;;;;;;;3.53;1.67;;;3.00;99.90;;;;;;5053615;28;20249;-60
2024/01/27 01:29:11;;;;;;;2.60;2.03;;;2.80;99.90;;;;;;5053777;28;20176;-60
2024/01/27 01:31:37;;;;;;;1.67;1.57;;;2.80;99.90;;;;;;5053705;28;20171;-60
2024/01/27 01:34:02;;;;;;;4.77;1.90;;;2.70;99.90;;;;;;5108991;22;20211;-64
2024/01/27 01:36:28;;;;;;;3.47;2.40;;;2.60;99.90;;;;;;5052134;28;20466;-63
2024/01/27 01:38:54;;;;;;;3.03;1.90;;;2.60;99.90;;;;;;5053362;28;20249;-63
2024/01/27 01:41:19;;;;;;;3.97;2.00;;;2.50;99.90;;;;;;5053369;28;20172;-63
2024/01/27 01:43:45;;;;;;;7.20;2.50;;;2.60;99.90;;;;;;5053188;28;20198;-63
2024/01/27 01:46:11;;;;;;;4.53;2.47;;;2.70;99.90;;;;;;5053222;28;20623;-63
2024/01/27 01:48:36;;;;;;;3.80;2.10;;;2.80;99.90;;;;;;5053158;28;20170;-63
2024/01/27 01:51:04;;;;;;;2.40;1.87;;;2.90;99.90;;;;;;5052954;28;20210;-64
2024/01/27 01:53:29;;;;;;;4.35;2.35;;;2.90;99.90;;;;;;5052996;28;20174;-63
2024/01/27 01:55:55;;;;;;;2.63;2.40;;;2.90;99.90;;;;;;5053048;28;20574;-63
2024/01/27 01:58:21;;;;;;;4.15;2.53;;;2.90;99.90;;;;;;5053108;28;20240;-64
2024/01/27 02:00:46;;;;;;;6.73;4.27;;;2.80;99.90;;;;;;5052847;28;20678;-64
2024/01/27 02:03:13;;;;;;;2.50;1.63;;;2.70;99.90;;;;;;5052532;28;20174;-63
2024/01/27 02:05:40;;;;;;;3.28;1.83;;;2.70;99.90;;;;;;5052350;28;20213;-63
2024/01/27 02:08:06;;;;;;;8.02;2.38;;;2.80;99.90;;;;;;5052844;28;20174;-63
2024/01/27 02:10:36;;;;;;;2.72;1.52;;;2.70;99.90;;;;;;5052712;28;20180;-64
2024/01/27 02:13:25;;;;;;;2.45;1.20;;;2.60;99.90;;;;;;5053032;28;20232;-63
2024/01/27 02:15:50;;;;;;;6.47;1.80;;;2.50;99.90;;;;;;5052571;28;20271;-63
2024/01/27 02:18:16;;;;;;;4.60;1.60;;;2.50;99.90;;;;;;5052807;28;20198;-63
2024/01/27 02:20:42;;;;;;;2.30;1.67;;;2.40;99.90;;;;;;5051637;28;20826;-64
2024/01/27 02:23:08;;;;;;;1.77;1.50;;;2.40;99.90;;;;;;5052552;28;20401;-63
2024/01/27 02:25:35;;;;;;;2.00;1.03;;;2.40;99.90;;;;;;5052424;28;20460;-63
2024/01/27 02:28:02;;;;;;;3.55;1.98;;;2.50;99.90;;;;;;5052418;28;20169;-63
2024/01/27 02:30:28;;;;;;;3.63;1.92;;;2.60;99.90;;;;;;5050847;28;20208;-64
2024/01/27 02:32:56;;;;;;;1.40;1.20;;;2.60;99.90;;;;;;5053592;28;20173;-63
2024/01/27 02:35:21;;;;;;;4.32;1.88;;;2.70;99.90;;;;;;5052222;28;20452;-64
2024/01/27 02:37:47;;;;;;;3.07;2.00;;;2.70;99.90;;;;;;5052309;28;20196;-64
2024/01/27 02:40:14;;;;;;;2.63;2.23;;;2.70;99.90;;;;;;5052641;28;20253;-63
2024/01/27 02:42:42;;;;;;;2.95;1.90;;;2.60;99.90;;;;;;5052133;28;20643;-63
2024/01/27 02:45:08;;;;;;;2.75;1.55;;;2.60;99.90;;;;;;5051802;28;20300;-63
2024/01/27 02:47:33;;;;;;;1.40;1.30;;;2.60;99.90;;;;;;5052129;28;20607;-63
2024/01/27 02:49:59;;;;;;;3.10;2.20;;;2.60;99.90;;;;;;5050608;28;20416;-64
2024/01/27 02:52:25;;;;;;;2.07;1.87;;;2.50;99.90;;;;;;5051804;28;20212;-64
2024/01/27 02:54:56;;;;;;;1.63;1.30;;;2.50;99.90;;;;;;5052030;28;20220;-64
2024/01/27 02:57:21;;;;;;;2.25;1.95;;;2.50;99.90;;;;;;5051801;28;20173;-63
2024/01/27 02:59:47;;;;;;;1.13;1.03;;;2.30;99.90;;;;;;5051760;28;20182;-63
2024/01/27 03:02:13;;;;;;;1.60;1.50;;;2.20;99.90;;;;;;5051518;28;20612;-63
2024/01/27 03:04:38;;;;;;;2.50;2.07;;;2.20;99.90;;;;;;5051673;28;20205;-63
2024/01/27 03:07:04;;;;;;;3.90;2.73;;;2.20;99.90;;;;;;5050540;28;20170;-63
2024/01/27 03:09:30;;;;;;;9.43;2.75;;;2.20;99.90;;;;;;5050741;28;20244;-63
2024/01/27 03:11:56;;;;;;;2.40;1.57;;;2.20;99.90;;;;;;5051430;28;20657;-64
2024/01/27 03:14:22;;;;;;;7.23;2.20;;;2.30;99.90;;;;;;5051485;28;20431;-63
2024/01/27 03:16:48;;;;;;;3.00;2.17;;;2.40;99.90;;;;;;5051810;28;20207;-64
2024/01/27 03:19:13;;;;;;;1.55;1.45;;;2.40;99.90;;;;;;5051531;28;20178;-63
2024/01/27 03:21:39;;;;;;;1.50;1.40;;;2.30;99.90;;;;;;5051680;28;20594;-64
2024/01/27 03:24:05;;;;;;;1.80;1.00;;;2.20;99.90;;;;;;5051702;28;20619;-63
2024/01/27 03:26:31;;;;;;;2.20;1.73;;;2.30;99.90;;;;;;5051488;28;20204;-63
2024/01/27 03:28:56;;;;;;;9.43;1.57;;;2.30;99.90;;;;;;5051335;28;20639;-64
2024/01/27 03:31:22;;;;;;;3.73;1.63;;;2.30;99.90;;;;;;5051556;28;20204;-63
2024/01/27 03:33:47;;;;;;;3.17;1.23;;;2.20;99.90;;;;;;5050968;28;20177;-63
2024/01/27 03:36:13;;;;;;;1.27;1.10;;;2.10;99.90;;;;;;5051444;28;20697;-63
2024/01/27 03:38:40;;;;;;;1.50;1.40;;;2.10;99.90;;;;;;5051521;28;20553;-63
2024/01/27 03:41:06;;;;;;;2.08;1.60;;;2.10;99.90;;;;;;5051100;28;20407;-63
2024/01/27 03:43:33;;;;;;;1.70;1.60;;;2.10;99.90;;;;;;5051041;28;20239;-63
2024/01/27 03:45:59;;;;;;;7.72;2.65;;;2.00;99.90;;;;;;5050994;28;20543;-63
2024/01/27 03:48:25;;;;;;;1.80;1.70;;;2.00;99.90;;;;;;5050554;28;20613;-63
2024/01/27 03:50:51;;;;;;;3.17;2.30;;;1.80;99.90;;;;;;5051113;28;20201;-63
2024/01/27 03:53:17;;;;;;;4.40;1.73;;;1.90;99.90;;;;;;5051335;28;20206;-62
2024/01/27 03:55:42;;;;;;;2.13;1.70;;;2.00;99.90;;;;;;5051918;28;20926;-64
2024/01/27 03:58:08;;;;;;;1.33;1.23;;;1.90;99.90;;;;;;5051220;28;20181;-63
2024/01/27 04:00:34;;;;;;;2.80;1.97;;;1.80;99.90;;;;;;5051037;28;20179;-64
2024/01/27 04:03:00;;;;;;;1.80;1.70;;;1.90;99.90;;;;;;5050865;28;20242;-63
2024/01/27 04:05:26;;;;;;;3.63;2.95;;;2.00;99.90;;;;;;5050964;28;20220;-63
2024/01/27 04:07:52;;;;;;;1.70;1.27;;;2.10;99.90;;;;;;5051357;28;20204;-63
2024/01/27 04:10:18;;;;;;;1.33;1.13;;;2.10;99.90;;;;;;5050999;28;20177;-63
2024/01/27 04:12:44;;;;;;;5.88;1.30;;;2.10;99.90;;;;;;5050795;28;20184;-63
2024/01/27 04:15:10;;;;;;;2.60;1.67;;;2.20;99.90;;;;;;5051032;28;20201;-63
2024/01/27 04:17:37;;;;;;;1.45;1.25;;;2.10;99.90;;;;;;5050944;28;20257;-63
2024/01/27 04:20:04;;;;;;;3.15;1.20;;;2.20;99.90;;;;;;5050935;28;20716;-63
2024/01/27 04:22:30;;;;;;;2.42;1.40;;;2.20;99.90;;;;;;5050946;28;20621;-63
2024/01/27 04:24:56;;;;;;;1.95;1.30;;;2.10;99.90;;;;;;5050839;28;20216;-64
2024/01/27 04:27:21;;;;;;;1.10;1.10;;;2.10;99.90;;;;;;5050761;28;20177;-64
2024/01/27 04:29:47;;;;;;;2.00;1.80;;;2.10;99.90;;;;;;5050821;28;20237;-64
2024/01/27 04:32:13;;;;;;;2.60;0.90;;;2.10;99.90;;;;;;5050525;28;20227;-64
2024/01/27 04:34:39;;;;;;;5.43;1.40;;;2.10;99.90;;;;;;5050692;28;20208;-64
2024/01/27 04:37:05;;;;;;;2.05;1.45;;;2.00;99.90;;;;;;5050838;28;20423;-64
2024/01/27 04:39:31;;;;;;;2.10;1.05;;;2.00;99.90;;;;;;5050622;28;20234;-64
2024/01/27 04:41:57;;;;;;;1.23;1.13;;;2.00;99.90;;;;;;5050378;28;20257;-62
2024/01/27 04:44:22;;;;;;;1.60;1.47;;;1.90;99.90;;;;;;5051246;28;20239;-63
2024/01/27 04:46:48;;;;;;;2.50;2.30;;;1.80;99.90;;;;;;5054260;28;20460;-63
2024/01/27 04:49:16;;;;;;;1.97;1.63;;;1.70;99.90;;;;;;5054570;28;20214;-63
2024/01/27 04:51:42;;;;;;;1.30;1.20;;;1.70;99.90;;;;;;5052945;28;20170;-64
2024/01/27 04:54:08;;;;;;;1.70;0.80;;;1.80;99.90;;;;;;5054103;28;20558;-65
2024/01/27 04:56:34;;;;;;;1.75;1.00;;;1.80;99.90;;;;;;5054179;28;20205;-65
2024/01/27 04:59:00;;;;;;;7.30;0.93;;;1.80;99.90;;;;;;5054116;28;20287;-65
2024/01/27 05:01:25;;;;;;;2.27;0.87;;;1.80;99.90;;;;;;5053947;28;20166;-67
2024/01/27 05:03:51;;;;;;;1.43;1.23;;;1.70;99.90;;;;;;5053760;28;20184;-66
2024/01/27 05:06:17;;;;;;;6.63;1.33;;;1.70;99.90;;;;;;5054002;28;20223;-64
2024/01/27 05:08:43;;;;;;;0.90;0.90;;;1.80;99.90;;;;;;5053878;28;20187;-64
2024/01/27 05:11:09;;;;;;;2.33;1.00;;;1.80;99.90;;;;;;5053716;28;20272;-63
2024/01/27 05:13:37;;;;;;;2.00;1.45;;;1.90;99.90;;;;;;5053762;28;20194;-65
2024/01/27 05:16:03;;;;;;;4.13;1.48;;;1.90;99.90;;;;;;5054370;28;20217;-66
2024/01/27 05:18:29;;;;;;;0.87;0.87;;;1.90;99.90;;;;;;5054507;28;20169;-65
2024/01/27 05:20:54;;;;;;;3.13;1.17;;;2.00;99.90;;;;;;5053629;28;20792;-65
2024/01/27 05:23:20;;;;;;;2.10;1.40;;;2.10;99.90;;;;;;5053564;28;20578;-66
2024/01/27 05:25:46;;;;;;;1.90;1.17;;;2.20;99.90;;;;;;5053456;28;20690;-65
2024/01/27 05:28:11;;;;;;;1.87;1.67;;;2.30;99.90;;;;;;5053651;28;20173;-65
2024/01/27 05:30:37;;;;;;;0.80;0.80;;;2.40;99.90;;;;;;5053351;28;20349;-65
2024/01/27 05:33:02;;;;;;;1.57;0.80;;;2.50;99.90;;;;;;5053550;28;20223;-68
2024/01/27 05:35:28;;;;;;;5.20;1.20;;;2.50;99.90;;;;;;5053467;28;20205;-59
2024/01/27 05:37:54;;;;;;;2.60;1.23;;;2.60;99.90;;;;;;5053884;28;20231;-60
2024/01/27 05:40:19;;;;;;;1.27;1.07;;;3.40;99.90;;;;;;5053599;28;20419;-61
2024/01/27 05:42:45;;;;;;;1.33;1.23;;;4.50;99.90;;;;;;5053403;28;20167;-64
2024/01/27 05:45:11;;;;;;;4.00;1.40;;;5.60;99.90;;;;;;5051944;28;21049;-68
2024/01/27 05:47:36;;;;;;;1.43;1.30;;;6.10;99.90;;;;;;5053473;28;20170;-65
2024/01/27 05:50:03;;;;;;;3.43;2.03;;;5.90;99.90;;;;;;5053222;28;20166;-64
2024/01/27 05:52:28;;;;;;;2.25;1.58;;;5.50;99.40;;;;;;5052914;28;20165;-64
2024/01/27 05:54:54;;;;;;;7.03;3.53;;;5.00;98.80;;;;;;5052992;28;20614;-64
2024/01/27 05:57:20;;;;;;;2.77;2.53;;;4.50;99.20;;;;;;5051767;28;20193;-63
2024/01/27 05:59:45;;;;;;;3.30;2.50;;;4.30;99.40;;;;;;5053036;28;20206;-65
2024/01/27 06:02:11;;;;;;;2.40;1.60;;;3.90;99.70;;;;;;5052773;28;20708;-64
2024/01/27 06:04:37;;;;;;;6.40;3.83;;;3.80;99.90;;;;;;5052806;28;20679;-68
2024/01/27 06:07:02;;;;;;;5.43;2.73;;;3.70;99.90;;;;;;5051622;28;20260;-69
2024/01/27 06:09:28;;;;;;;3.40;2.13;;;3.60;99.90;;;;;;5052853;28;20552;-68
2024/01/27 06:11:54;;;;;;;3.67;2.93;;;3.60;99.90;;;;;;5052553;28;20228;-64
2024/01/27 06:14:19;;;;;;;6.83;3.03;;;3.60;99.90;;;;;;5052565;28;20255;-67
2024/01/27 06:16:45;;;;;;;4.23;2.80;;;3.50;99.90;;;;;;5052724;28;20304;-65
2024/01/27 06:19:11;;;;;;;1.97;1.70;;;3.40;99.90;;;;;;5052588;28;20182;-65
2024/01/27 06:21:36;;;;;;;2.10;1.90;;;3.20;99.90;;;;;;5052528;28;20174;-65
2024/01/27 06:24:02;;;;;;;1.50;1.40;;;3.10;99.90;;;;;;5052238;28;20280;-63
2024/01/27 06:26:27;;;;;;;2.60;1.67;;;3.00;99.90;;;;;;5052554;28;20589;-66
2024/01/27 06:28:53;;;;;;;2.30;1.47;;;2.90;99.90;;;;;;5052350;28;20646;-64
2024/01/27 06:31:19;;;;;;;1.80;1.70;;;2.80;99.90;;;;;;5052310;28;20162;-64
2024/01/27 06:33:44;;;;;;;2.80;1.50;;;2.80;99.90;;;;;;5052161;28;20166;-65
2024/01/27 06:36:10;;;;;;;1.53;1.37;;;2.80;99.90;;;;;;5052231;28;20212;-64
2024/01/27 06:38:37;;;;;;;7.47;1.70;;;2.70;99.90;;;;;;5052621;28;20174;-64
2024/01/27 06:41:03;;;;;;;2.55;1.90;;;2.60;99.90;;;;;;5053433;28;20249;-64
2024/01/27 06:43:29;;;;;;;3.72;1.50;;;2.50;99.90;;;;;;5052034;28;20174;-64
2024/01/27 06:45:57;;;;;;;2.83;1.60;;;2.50;99.90;;;;;;5052025;28;20279;-64
2024/01/27 06:48:25;;;;;;;10.85;1.73;;;2.60;99.90;;;;;;5052107;28;20173;-64
2024/01/27 06:50:50;;;;;;;3.92;2.05;;;2.60;99.90;;;;;;5051818;28;20174;-64
2024/01/27 06:53:18;;;;;;;1.60;1.43;;;2.60;99.90;;;;;;5051970;28;20170;-64
2024/01/27 06:55:43;;;;;;;1.92;1.77;;;2.60;99.90;;;;;;5051558;28;20658;-64
2024/01/27 06:58:09;;;;;;;2.90;1.77;;;2.50;99.90;;;;;;5051684;28;20177;-64
2024/01/27 07:00:34;;;;;;;2.03;1.93;;;2.50;99.90;;;;;;5051618;28;20224;-68
2024/01/27 07:03:00;;;;;;;1.70;1.57;;;2.40;99.90;;;;;;5051744;28;20186;-63
2024/01/27 07:05:26;;;;;;;1.80;1.40;;;2.30;99.90;;;;;;5051780;28;20219;-64
2024/01/27 07:07:51;;;;;;;1.93;1.30;;;2.30;99.90;;;;;;5051384;28;20169;-64
2024/01/27 07:10:17;;;;;;;3.40;1.60;;;2.20;99.90;;;;;;5051592;28;20686;-64
2024/01/27 07:12:42;;;;;;;1.93;1.80;;;2.20;99.90;;;;;;5051422;28;20170;-64
2024/01/27 07:15:08;;;;;;;3.80;1.27;;;2.20;99.90;;;;;;5051621;28;20197;-64
2024/01/27 07:17:34;;;;;;;2.80;1.50;;;2.20;99.90;;;;;;5051604;28;20177;-65
2024/01/27 07:19:59;;;;;;;2.00;1.80;;;2.20;99.90;;;;;;5051538;28;20461;-64
2024/01/27 07:22:25;;;;;;;2.67;2.00;;;2.20;99.90;;;;;;5051725;28;20211;-63
2024/01/27 07:24:51;;;;;;;3.83;2.13;;;2.30;99.90;;;;;;5051343;28;20208;-65
2024/01/27 07:27:18;;;;;;;1.70;1.60;;;2.20;99.90;;;;;;5050209;28;20606;-64
2024/01/27 07:29:44;;;;;;;1.92;1.77;;;2.20;99.90;;;;;;5051461;28;20408;-64
2024/01/27 07:32:13;;;;;;;5.50;1.83;;;2.20;99.90;;;;;;5051111;28;20174;-64
2024/01/27 07:34:43;;;;;;;2.63;1.58;;;2.10;99.90;;;;;;5051371;28;20213;-68
2024/01/27 07:37:09;;;;;;;2.35;1.98;;;2.00;99.90;;;;;;5051051;28;20216;-63
2024/01/27 07:39:35;;;;;;;1.53;1.43;;;2.10;99.90;;;;;;5049722;28;20205;-68
2024/01/27 07:42:01;;;;;;;3.25;1.33;;;2.20;99.90;;;;;;5048219;28;20844;-65
2024/01/27 07:44:27;;;;;;;3.13;1.90;;;2.30;99.90;;;;;;5049238;28;20233;-64
2024/01/27 07:46:53;;;;;;;3.67;1.83;;;2.30;99.90;;;;;;5050045;28;20202;-64
2024/01/27 07:49:19;;;;;;;3.27;1.80;;;2.40;99.90;;;;;;5051045;28;20658;-63
2024/01/27 07:51:45;;;;;;;3.90;3.60;;;2.40;99.90;;;;;;5051143;28;20180;-65
2024/01/27 07:54:10;;;;;;;6.85;4.30;;;2.40;99.90;;;;;;5050841;28;20186;-65
2024/01/27 07:56:37;;;;;;;6.63;3.90;;;2.40;99.90;;;;;;5051325;28;20174;-64
2024/01/27 07:59:03;;;;;;;3.80;2.95;;;2.40;99.90;;;;;;5051012;28;20644;-64
2024/01/27 08:01:29;;;;;;;3.83;3.40;;;2.40;99.90;;;;;;5050736;28;20182;-64
2024/01/27 08:03:54;;;;;;;3.20;2.47;;;2.40;99.90;;;;;;5051460;28;20827;-65
2024/01/27 08:06:31;;;;;;;3.77;3.40;;;2.70;99.90;;;;;;5050853;28;20672;-64
2024/01/27 08:08:57;;;;;;;5.57;4.15;;;3.70;99.90;;;;;;5051025;28;20210;-64
2024/01/27 08:11:24;;;;;;;5.00;3.43;;;5.30;99.90;;;;;;5051143;28;20656;-64
2024/01/27 08:13:50;;;;;;;3.42;2.88;;;6.60;99.90;;;;;;5050504;28;20466;-65
2024/01/27 08:16:16;;;;;;;3.00;2.67;;;7.90;99.90;;;;;;5051021;28;20648;-64
2024/01/27 08:18:44;;;;;;;3.93;1.87;;;9.30;99.90;;;;;;5051075;28;20495;-65
2024/01/27 08:21:11;;;;;;;2.23;1.97;;;10.90;99.90;;;;;;5054319;28;20176;-64
2024/01/27 08:23:37;;;;;;;2.70;1.47;;;12.60;93.50;;;;;;5054326;28;20908;-65
2024/01/27 08:26:03;;;;;;;2.50;2.30;;;14.10;92.40;;;;;;5054607;28;20498;-64
2024/01/27 08:28:29;;;;;;;5.83;2.00;;;15.40;86.60;;;;;;5054399;28;20440;-65
2024/01/27 08:30:54;;;;;;;2.40;1.70;;;16.30;84.70;;;;;;5054336;28;20461;-65
2024/01/27 08:33:22;;;;;;;3.93;2.70;;;17.10;74.80;;;;;;5053385;28;20200;-64
2024/01/27 08:35:48;;;;;;;6.10;4.60;;;17.90;75.10;;;;;;5054239;28;20448;-62
2024/01/27 08:38:14;;;;;;;3.73;3.20;;;18.30;67.00;;;;;;5054055;28;20480;-63
2024/01/27 08:40:40;;;;;;;3.53;3.07;;;18.20;65.40;;;;;;5054371;28;20174;-63
2024/01/27 08:43:05;;;;;;;6.23;5.67;;;17.70;63.70;;;;;;5054045;28;20462;-63
2024/01/27 08:45:31;;;;;;;5.13;4.70;;;17.00;63.00;;;;;;5054323;28;20305;-62
2024/01/27 08:47:57;;;;;;;7.30;6.10;;;16.40;62.30;;;;;;5054157;28;20548;-62
2024/01/27 08:50:23;;;;;;;8.10;7.30;;;15.90;62.90;;;;;;5054218;28;20479;-65
2024/01/27 08:52:48;;;;;;;10.73;9.70;;;15.70;62.20;;;;;;5053647;28;20202;-65
2024/01/27 08:55:16;;;;;;;6.97;4.40;;;15.50;61.00;;;;;;5053967;28;20204;-65
2024/01/27 08:57:42;;;;;;;5.20;3.50;;;15.10;62.60;;;;;;5054391;28;20189;-65
2024/01/27 09:00:09;;;;;;;4.53;3.87;;;14.60;64.00;;;;;;5053441;28;20409;-65
2024/01/27 09:02:34;;;;;;;6.00;5.37;;;13.70;63.80;;;;;;5052251;28;20182;-64
2024/01/27 09:05:00;;;;;;;7.43;3.30;;;13.10;65.20;;;;;;5053530;28;20846;-64
2024/01/27 09:07:27;;;;;;;11.10;5.00;;;12.80;67.70;;;;;;5054024;28;20178;-64
2024/01/27 09:09:55;;;;;;;9.60;6.30;;;12.80;69.20;;;;;;5053748;28;20169;-64
2024/01/27 09:12:21;;;;;;;2.07;1.80;;;12.80;69.00;;;;;;5053514;28;20416;-64
2024/01/27 09:14:47;;;;;;;1.60;1.50;;;12.70;69.10;;;;;;5053579;28;20443;-64
2024/01/27 09:17:12;;;;;;;2.27;1.80;;;12.60;68.90;;;;;;5053118;28;20481;-64
2024/01/27 09:19:38;;;;;;;3.80;3.00;;;12.50;69.50;;;;;;5053223;28;20182;-65
2024/01/27 09:22:04;;;;;;;5.13;2.30;;;12.50;70.40;;;;;;5053474;28;20182;-64
2024/01/27 09:24:29;;;;;;;4.83;1.87;;;12.60;72.80;;;;;;5054401;28;20206;-65
2024/01/27 09:26:55;;;;;;;2.73;2.53;;;13.10;72.70;;;;;;5052233;28;20688;-65
2024/01/27 09:29:20;;;;;;;1.73;1.63;;;13.50;68.40;;;;;;5053576;28;20174;-65
2024/01/27 09:31:47;;;;;;;4.03;2.47;;;14.30;69.40;;;;;;5053140;28;20166;-64
2024/01/27 09:34:13;;;;;;;3.60;3.30;;;15.50;67.20;;;;;;5053145;28;20676;-65
2024/01/27 09:36:39;;;;;;;2.50;2.30;;;16.70;61.70;;;;;;5053221;28;20412;-65
2024/01/27 09:39:05;;;;;;;3.63;2.40;;;17.50;60.20;;;;;;5053634;28;20671;-65
2024/01/27 09:41:34;;;;;;;2.20;1.90;;;17.90;59.10;;;;;;5053399;28;20636;-64
2024/01/27 09:44:02;;;;;;;3.43;1.80;;;18.40;58.90;;;;;;5053284;28;20532;-64
2024/01/27 09:46:30;;;;;;;1.87;1.77;;;18.90;58.00;;;;;;5053278;28;20453;-65
2024/01/27 09:48:56;;;;;;;2.73;1.93;;;19.20;56.10;;;;;;5052956;28;20386;-65
2024/01/27 09:51:22;;;;;;;2.43;1.90;;;19.40;55.50;;;;;;5053102;28;20396;-66
2024/01/27 09:53:51;;;;;;;2.73;2.13;;;19.80;55.10;;;;;;5053038;28;20411;-66
2024/01/27 09:56:21;;;;;;;4.70;2.57;;;20.20;54.80;;;;;;5052974;28;20465;-66
2024/01/27 09:58:49;;;;;;;2.20;2.00;;;20.60;52.40;;;;;;5053095;28;20404;-66
2024/01/27 10:01:18;;;;;;;2.70;2.23;;;21.10;51.90;;;;;;5052778;28;20482;-66
2024/01/27 10:03:43;;;;;;;3.97;3.23;;;21.70;50.60;;;;;;5053010;28;20404;-65
2024/01/27 10:06:10;;;;;;;4.63;3.23;;;22.00;49.00;;;;;;5053000;28;20579;-65
2024/01/27 10:08:36;;;;;;;2.30;1.80;;;22.00;48.70;;;;;;5052941;28;20255;-65
2024/01/27 10:11:07;;;;;;;30.70;20.80;;;22.00;50.50;;;;;;5052733;28;20404;-65
2024/01/27 10:13:33;;;;;;;14.43;11.97;;;22.00;48.10;;;;;;5052466;28;20412;-65
2024/01/27 10:16:03;;;;;;;11.87;6.20;;;22.00;48.80;;;;;;5052525;28;20429;-65
2024/01/27 10:18:33;;;;;;;7.23;4.60;;;22.00;49.20;;;;;;5052563;28;20408;-65
2024/01/27 10:20:58;;;;;;;4.30;1.40;;;22.00;48.20;;;;;;5052229;28;20454;-65
2024/01/27 10:23:26;;;;;;;1.67;1.57;;;22.20;48.10;;;;;;5052511;28;20790;-64
2024/01/27 10:25:54;;;;;;;2.80;1.17;;;22.10;47.40;;;;;;5050770;28;20237;-65
2024/01/27 10:28:20;;;;;;;1.53;1.20;;;22.00;46.90;;;;;;5052223;28;20466;-64
2024/01/27 10:30:48;;;;;;;1.23;1.07;;;21.00;48.00;;;;;;5052477;28;20413;-64
2024/01/27 10:33:14;;;;;;;4.60;1.70;;;20.20;49.70;;;;;;5052317;28;20589;-64
2024/01/27 10:35:40;;;;;;;1.47;1.33;;;19.80;50.70;;;;;;5051509;28;20480;-65
2024/01/27 10:38:07;;;;;;;1.43;1.23;;;19.70;51.60;;;;;;5051891;28;20409;-64
2024/01/27 10:40:37;;;;;;;1.10;1.00;;;19.60;52.00;;;;;;5051926;28;20801;-65
2024/01/27 10:43:07;;;;;;;1.80;1.33;;;19.50;51.40;;;;;;5048907;28;20903;-65
2024/01/27 10:45:36;;;;;;;1.37;1.10;;;19.30;51.90;;;;;;5049734;28;20503;-65
2024/01/27 10:48:04;;;;;;;2.57;1.23;;;19.30;52.70;;;;;;5052491;28;20386;-65
2024/01/27 10:50:30;;;;;;;1.73;0.80;;;18.90;52.30;;;;;;5052065;28;20400;-65
2024/01/27 10:52:59;;;;;;;1.47;0.83;;;18.50;53.60;;;;;;5051884;28;20423;-65
2024/01/27 10:55:25;;;;;;;1.67;1.00;;;17.80;55.00;;;;;;5052459;28;20435;-65
2024/01/27 10:57:53;;;;;;;1.63;1.47;;;16.80;56.70;;;;;;5051931;28;20503;-64
2024/01/27 11:00:19;;;;;;;1.50;1.07;;;16.50;57.40;;;;;;5051878;28;20488;-65
2024/01/27 11:02:45;;;;;;;1.20;0.90;;;16.20;57.60;;;;;;5051388;28;20414;-65
2024/01/27 11:05:15;;;;;;;1.53;1.17;;;15.90;58.00;;;;;;5051427;28;20573;-65
2024/01/27 11:07:42;;;;;;;1.00;0.83;;;15.30;58.90;;;;;;5051861;28;20406;-66
2024/01/27 11:10:08;;;;;;;0.80;0.70;;;14.70;60.20;;;;;;5051466;28;20479;-66
2024/01/27 11:12:34;;;;;;;4.40;1.00;;;14.40;62.60;;;;;;5050684;28;20964;-66
2024/01/27 11:15:00;;;;;;;0.90;0.77;;;14.00;64.30;;;;;;5050954;28;20454;-66
2024/01/27 11:17:26;;;;;;;0.70;0.70;;;13.70;65.40;;;;;;5051291;28;20504;-66
2024/01/27 11:19:53;;;;;;;1.53;1.43;;;13.20;67.00;;;;;;5051548;28;20405;-66
2024/01/27 11:22:37;;;;;;;2.53;1.13;;;12.70;69.20;;;;;;5051379;28;20174;-66
2024/01/27 11:25:12;;;;;;;2.53;1.30;;;12.20;72.80;;;;;;5051670;28;20489;-66
2024/01/27 11:27:39;;;;;;;1.13;0.97;;;11.80;74.80;;;;;;5051588;28;20392;-66
2024/01/27 11:30:08;;;;;;;2.50;1.17;;;11.40;74.00;;;;;;5051517;28;20766;-66
2024/01/27 11:32:33;;;;;;;0.80;0.80;;;11.20;78.10;;;;;;5051279;28;20432;-66
2024/01/27 11:35:02;;;;;;;1.00;0.90;;;11.00;82.40;;;;;;5051181;28;20904;-65
2024/01/27 11:37:30;;;;;;;5.03;1.13;;;10.80;83.70;;;;;;5051389;28;20223;-66
2024/01/27 11:40:06;;;;;;;1.20;1.10;;;10.60;84.40;;;;;;5051377;28;20415;-66
2024/01/27 11:42:31;;;;;;;2.00;0.90;;;10.60;85.30;;;;;;5051059;28;20404;-66
2024/01/27 11:44:57;;;;;;;4.83;1.40;;;10.60;88.20;;;;;;5051188;28;20823;-66
2024/01/27 11:47:22;;;;;;;2.60;1.10;;;10.40;91.00;;;;;;5051171;28;20659;-66
2024/01/27 11:49:56;;;;;;;1.73;0.80;;;10.30;92.00;;;;;;5051245;28;20173;-65
2024/01/27 11:52:23;;;;;;;2.60;1.10;;;10.20;92.20;;;;;;5051310;28;20178;-66
2024/01/27 11:55:01;;;;;;;3.08;0.93;;;10.10;92.70;;;;;;5054906;28;21007;-66
2024/01/27 11:57:27;;;;;;;0.97;0.70;;;10.10;93.60;;;;;;5055379;28;20183;-66
2024/01/27 11:59:53;;;;;;;2.35;1.63;;;10.00;93.90;;;;;;5055247;28;20408;-66
2024/01/27 12:02:19;;;;;;;1.65;1.20;;;10.00;94.00;;;;;;5054929;28;20174;-66
2024/01/27 12:04:45;;;;;;;1.57;1.37;;;10.00;94.40;;;;;;5054930;28;20556;-66
2024/01/27 12:07:10;;;;;;;2.13;1.10;;;10.10;94.40;;;;;;5055227;28;20170;-66
2024/01/27 12:09:37;;;;;;;1.63;1.00;;;10.10;94.50;;;;;;5056406;28;20465;-65
2024/01/27 12:12:06;;;;;;;1.67;1.00;;;10.10;93.80;;;;;;5054904;28;20910;-66
2024/01/27 12:14:44;;;;;;;2.42;1.48;;;10.10;94.00;;;;;;5054840;28;20194;-66
2024/01/27 12:17:10;;;;;;;3.22;1.17;;;10.00;94.00;;;;;;5055024;28;20177;-65
2024/01/27 12:19:37;;;;;;;5.83;0.90;;;9.80;94.60;;;;;;5054905;28;20174;-66
2024/01/27 12:22:04;;;;;;;1.52;0.93;;;9.70;94.50;;;;;;5054735;28;20412;-66
2024/01/27 12:24:32;;;;;;;4.05;0.90;;;9.70;94.40;;;;;;5054679;28;20214;-66
2024/01/27 12:26:59;;;;;;;1.73;0.93;;;9.60;94.80;;;;;;5054776;28;20220;-66
2024/01/27 12:29:24;;;;;;;1.15;0.90;;;9.40;95.10;;;;;;5054725;28;20186;-66
2024/01/27 12:31:50;;;;;;;3.60;1.47;;;9.30;95.30;;;;;;5054560;28;20228;-66
2024/01/27 12:34:17;;;;;;;1.40;1.30;;;9.00;95.30;;;;;;5054555;28;20623;-65
2024/01/27 12:36:43;;;;;;;2.83;1.50;;;8.70;95.80;;;;;;5054781;28;20167;-66
2024/01/27 12:39:12;;;;;;;1.10;0.90;;;8.70;96.20;;;;;;5054561;28;20166;-66
2024/01/27 12:41:38;;;;;;;0.93;0.93;;;8.60;96.00;;;;;;5054356;28;20178;-66
2024/01/27 12:44:06;;;;;;;0.70;0.70;;;8.40;96.50;;;;;;5054519;28;20271;-66
2024/01/27 12:46:32;;;;;;;6.50;2.03;;;8.40;96.80;;;;;;5054448;28;20194;-66
2024/01/27 12:48:58;;;;;;;0.90;0.60;;;8.30;97.10;;;;;;5054550;28;20630;-66